sensor_id;sensor_type;location;lat;lon;timestamp;temperature;humidity
30594;DHT22;33199;47.590;8.300;2023-04-15T00:01:05;12.70;65.70
30594;DHT22;33199;47.590;8.300;2023-04-15T00:03:31;12.70;65.70
30594;DHT22;33199;47.590;8.300;2023-04-15T00:05:58;12.70;65.70
30594;DHT22;33199;47.590;8.300;2023-04-15T00:08:24;12.70;65.80
30594;DHT22;33199;47.590;8.300;2023-04-15T00:10:50;12.70;65.80
30594;DHT22;33199;47.590;8.300;2023-04-15T00:13:15;12.70;65.80
30594;DHT22;33199;47.590;8.300;2023-04-15T00:15:41;12.70;65.80
30594;DHT22;33199;47.590;8.300;2023-04-15T00:18:08;12.70;65.80
30594;DHT22;33199;47.590;8.300;2023-04-15T00:20:34;12.60;65.70
30594;DHT22;33199;47.590;8.300;2023-04-15T00:23:01;12.60;65.70
30594;DHT22;33199;47.590;8.300;2023-04-15T00:25:28;12.70;66.50
30594;DHT22;33199;47.590;8.300;2023-04-15T00:27:54;12.70;65.80
30594;DHT22;33199;47.590;8.300;2023-04-15T00:30:19;12.70;65.70
30594;DHT22;33199;47.590;8.300;2023-04-15T00:32:45;12.60;65.70
30594;DHT22;33199;47.590;8.300;2023-04-15T00:35:11;12.60;65.70
30594;DHT22;33199;47.590;8.300;2023-04-15T00:37:37;12.60;65.70
30594;DHT22;33199;47.590;8.300;2023-04-15T00:40:02;12.60;65.70
30594;DHT22;33199;47.590;8.300;2023-04-15T00:42:31;12.60;65.70
30594;DHT22;33199;47.590;8.300;2023-04-15T00:44:56;12.60;65.70
30594;DHT22;33199;47.590;8.300;2023-04-15T00:47:22;12.60;65.70
30594;DHT22;33199;47.590;8.300;2023-04-15T00:49:48;12.60;65.60
30594;DHT22;33199;47.590;8.300;2023-04-15T00:52:14;12.60;65.70
30594;DHT22;33199;47.590;8.300;2023-04-15T00:54:40;12.60;65.70
30594;DHT22;33199;47.590;8.300;2023-04-15T00:57:06;12.60;65.70
30594;DHT22;33199;47.590;8.300;2023-04-15T00:59:33;12.60;65.60
30594;DHT22;33199;47.590;8.300;2023-04-15T01:01:59;12.60;65.70
30594;DHT22;33199;47.590;8.300;2023-04-15T01:04:25;12.60;65.70
30594;DHT22;33199;47.590;8.300;2023-04-15T01:06:51;12.60;65.70
30594;DHT22;33199;47.590;8.300;2023-04-15T01:09:17;12.60;65.70
30594;DHT22;33199;47.590;8.300;2023-04-15T01:11:43;12.60;65.60
30594;DHT22;33199;47.590;8.300;2023-04-15T01:14:09;12.60;65.70
30594;DHT22;33199;47.590;8.300;2023-04-15T01:16:36;12.60;65.60
30594;DHT22;33199;47.590;8.300;2023-04-15T01:19:07;12.60;65.70
30594;DHT22;33199;47.590;8.300;2023-04-15T01:21:38;12.50;65.60
30594;DHT22;33199;47.590;8.300;2023-04-15T01:24:08;12.60;65.70
30594;DHT22;33199;47.590;8.300;2023-04-15T01:26:38;12.60;65.60
30594;DHT22;33199;47.590;8.300;2023-04-15T01:29:05;12.60;65.70
30594;DHT22;33199;47.590;8.300;2023-04-15T01:31:31;12.60;65.70
30594;DHT22;33199;47.590;8.300;2023-04-15T01:33:58;12.60;65.70
30594;DHT22;33199;47.590;8.300;2023-04-15T01:36:23;12.50;65.60
30594;DHT22;33199;47.590;8.300;2023-04-15T01:38:50;12.50;65.60
30594;DHT22;33199;47.590;8.300;2023-04-15T01:41:15;12.50;65.70
30594;DHT22;33199;47.590;8.300;2023-04-15T01:43:41;12.50;65.60
30594;DHT22;33199;47.590;8.300;2023-04-15T01:46:07;12.50;65.60
30594;DHT22;33199;47.590;8.300;2023-04-15T01:48:33;12.50;65.60
30594;DHT22;33199;47.590;8.300;2023-04-15T01:50:58;12.50;65.70
30594;DHT22;33199;47.590;8.300;2023-04-15T01:53:25;12.50;65.70
30594;DHT22;33199;47.590;8.300;2023-04-15T01:55:51;12.50;65.70
30594;DHT22;33199;47.590;8.300;2023-04-15T01:58:18;12.50;65.70
30594;DHT22;33199;47.590;8.300;2023-04-15T02:00:43;12.50;65.70
30594;DHT22;33199;47.590;8.300;2023-04-15T02:03:10;12.50;65.70
30594;DHT22;33199;47.590;8.300;2023-04-15T02:05:36;12.50;65.80
30594;DHT22;33199;47.590;8.300;2023-04-15T02:08:01;12.50;65.80
30594;DHT22;33199;47.590;8.300;2023-04-15T02:10:28;12.50;65.70
30594;DHT22;33199;47.590;8.300;2023-04-15T02:12:54;12.50;65.70
30594;DHT22;33199;47.590;8.300;2023-04-15T02:15:19;12.50;65.70
30594;DHT22;33199;47.590;8.300;2023-04-15T02:17:46;12.50;65.70
30594;DHT22;33199;47.590;8.300;2023-04-15T02:20:17;12.50;65.70
30594;DHT22;33199;47.590;8.300;2023-04-15T02:22:43;12.50;65.80
30594;DHT22;33199;47.590;8.300;2023-04-15T02:25:08;12.50;65.70
30594;DHT22;33199;47.590;8.300;2023-04-15T02:27:35;12.50;65.80
30594;DHT22;33199;47.590;8.300;2023-04-15T02:30:01;12.40;65.70
30594;DHT22;33199;47.590;8.300;2023-04-15T02:32:26;12.40;65.70
30594;DHT22;33199;47.590;8.300;2023-04-15T02:34:53;12.40;65.60
30594;DHT22;33199;47.590;8.300;2023-04-15T02:37:19;12.40;65.70
30594;DHT22;33199;47.590;8.300;2023-04-15T02:39:45;12.50;65.80
30594;DHT22;33199;47.590;8.300;2023-04-15T02:42:12;12.40;65.60
30594;DHT22;33199;47.590;8.300;2023-04-15T02:44:38;12.40;65.70
30594;DHT22;33199;47.590;8.300;2023-04-15T02:47:03;12.40;65.70
30594;DHT22;33199;47.590;8.300;2023-04-15T02:49:31;12.40;65.80
30594;DHT22;33199;47.590;8.300;2023-04-15T02:51:57;12.40;66.50
30594;DHT22;33199;47.590;8.300;2023-04-15T02:54:25;12.40;65.80
30594;DHT22;33199;47.590;8.300;2023-04-15T02:56:53;12.40;65.70
30594;DHT22;33199;47.590;8.300;2023-04-15T02:59:20;12.40;65.80
30594;DHT22;33199;47.590;8.300;2023-04-15T03:01:47;12.40;65.70
30594;DHT22;33199;47.590;8.300;2023-04-15T03:04:13;12.40;65.70
30594;DHT22;33199;47.590;8.300;2023-04-15T03:06:39;12.40;65.80
30594;DHT22;33199;47.590;8.300;2023-04-15T03:09:05;12.40;65.70
30594;DHT22;33199;47.590;8.300;2023-04-15T03:11:31;12.40;65.80
30594;DHT22;33199;47.590;8.300;2023-04-15T03:13:58;12.40;65.80
30594;DHT22;33199;47.590;8.300;2023-04-15T03:16:24;12.40;65.80
30594;DHT22;33199;47.590;8.300;2023-04-15T03:18:50;12.40;65.80
30594;DHT22;33199;47.590;8.300;2023-04-15T03:21:15;12.40;65.80
30594;DHT22;33199;47.590;8.300;2023-04-15T03:23:41;12.40;65.80
30594;DHT22;33199;47.590;8.300;2023-04-15T03:26:07;12.30;65.70
30594;DHT22;33199;47.590;8.300;2023-04-15T03:28:32;12.30;65.70
30594;DHT22;33199;47.590;8.300;2023-04-15T03:30:59;12.30;66.50
30594;DHT22;33199;47.590;8.300;2023-04-15T03:33:24;12.30;65.80
30594;DHT22;33199;47.590;8.300;2023-04-15T03:35:51;12.30;65.70
30594;DHT22;33199;47.590;8.300;2023-04-15T03:38:17;12.30;65.70
30594;DHT22;33199;47.590;8.300;2023-04-15T03:40:42;12.30;65.90
30594;DHT22;33199;47.590;8.300;2023-04-15T03:43:09;12.30;65.70
30594;DHT22;33199;47.590;8.300;2023-04-15T03:45:35;12.30;65.70
30594;DHT22;33199;47.590;8.300;2023-04-15T03:48:00;12.30;65.70
30594;DHT22;33199;47.590;8.300;2023-04-15T03:50:26;12.30;65.80
30594;DHT22;33199;47.590;8.300;2023-04-15T03:52:52;12.30;65.70
30594;DHT22;33199;47.590;8.300;2023-04-15T03:55:17;12.30;65.80
30594;DHT22;33199;47.590;8.300;2023-04-15T03:57:44;12.30;65.70
30594;DHT22;33199;47.590;8.300;2023-04-15T04:00:11;12.30;65.80
30594;DHT22;33199;47.590;8.300;2023-04-15T04:02:37;12.30;65.70
30594;DHT22;33199;47.590;8.300;2023-04-15T04:05:03;12.30;65.80
30594;DHT22;33199;47.590;8.300;2023-04-15T04:07:29;12.30;65.70
30594;DHT22;33199;47.590;8.300;2023-04-15T04:09:56;12.30;66.60
30594;DHT22;33199;47.590;8.300;2023-04-15T04:12:22;12.30;65.70
30594;DHT22;33199;47.590;8.300;2023-04-15T04:14:48;12.30;65.70
30594;DHT22;33199;47.590;8.300;2023-04-15T04:17:13;12.30;65.70
30594;DHT22;33199;47.590;8.300;2023-04-15T04:19:39;12.30;65.70
30594;DHT22;33199;47.590;8.300;2023-04-15T04:22:04;12.30;65.70
30594;DHT22;33199;47.590;8.300;2023-04-15T04:24:30;12.30;65.70
30594;DHT22;33199;47.590;8.300;2023-04-15T04:26:56;12.20;65.70
30594;DHT22;33199;47.590;8.300;2023-04-15T04:29:22;12.20;65.70
30594;DHT22;33199;47.590;8.300;2023-04-15T04:31:48;12.20;65.70
30594;DHT22;33199;47.590;8.300;2023-04-15T04:34:14;12.30;65.80
30594;DHT22;33199;47.590;8.300;2023-04-15T04:36:40;12.20;65.70
30594;DHT22;33199;47.590;8.300;2023-04-15T04:39:06;12.30;65.80
30594;DHT22;33199;47.590;8.300;2023-04-15T04:41:32;12.20;65.70
30594;DHT22;33199;47.590;8.300;2023-04-15T04:43:57;12.20;65.70
30594;DHT22;33199;47.590;8.300;2023-04-15T04:46:23;12.30;65.80
30594;DHT22;33199;47.590;8.300;2023-04-15T04:48:48;12.20;66.50
30594;DHT22;33199;47.590;8.300;2023-04-15T04:51:14;12.20;66.20
30594;DHT22;33199;47.590;8.300;2023-04-15T04:53:40;12.20;65.70
30594;DHT22;33199;47.590;8.300;2023-04-15T04:56:07;12.20;65.80
30594;DHT22;33199;47.590;8.300;2023-04-15T04:58:33;12.20;65.80
30594;DHT22;33199;47.590;8.300;2023-04-15T05:00:58;12.20;65.80
30594;DHT22;33199;47.590;8.300;2023-04-15T05:03:24;12.20;65.70
30594;DHT22;33199;47.590;8.300;2023-04-15T05:05:49;12.20;65.80
30594;DHT22;33199;47.590;8.300;2023-04-15T05:08:15;12.20;65.80
30594;DHT22;33199;47.590;8.300;2023-04-15T05:10:41;12.20;65.70
30594;DHT22;33199;47.590;8.300;2023-04-15T05:13:07;12.20;65.70
30594;DHT22;33199;47.590;8.300;2023-04-15T05:15:32;12.20;65.70
30594;DHT22;33199;47.590;8.300;2023-04-15T05:17:59;12.20;65.80
30594;DHT22;33199;47.590;8.300;2023-04-15T05:20:25;12.20;65.80
30594;DHT22;33199;47.590;8.300;2023-04-15T05:22:50;12.10;65.80
30594;DHT22;33199;47.590;8.300;2023-04-15T05:25:16;12.20;65.90
30594;DHT22;33199;47.590;8.300;2023-04-15T05:27:42;12.20;65.80
30594;DHT22;33199;47.590;8.300;2023-04-15T05:30:08;12.20;65.80
30594;DHT22;33199;47.590;8.300;2023-04-15T05:32:33;12.10;65.80
30594;DHT22;33199;47.590;8.300;2023-04-15T05:34:59;12.20;65.80
30594;DHT22;33199;47.590;8.300;2023-04-15T05:37:25;12.10;65.80
30594;DHT22;33199;47.590;8.300;2023-04-15T05:39:51;12.10;65.80
30594;DHT22;33199;47.590;8.300;2023-04-15T05:42:17;12.10;65.80
30594;DHT22;33199;47.590;8.300;2023-04-15T05:44:42;12.10;65.80
30594;DHT22;33199;47.590;8.300;2023-04-15T05:47:08;12.20;65.90
30594;DHT22;33199;47.590;8.300;2023-04-15T05:49:35;12.10;65.80
30594;DHT22;33199;47.590;8.300;2023-04-15T05:52:01;12.10;65.80
30594;DHT22;33199;47.590;8.300;2023-04-15T05:54:26;12.10;65.80
30594;DHT22;33199;47.590;8.300;2023-04-15T05:56:52;12.10;65.80
30594;DHT22;33199;47.590;8.300;2023-04-15T05:59:18;12.10;65.80
30594;DHT22;33199;47.590;8.300;2023-04-15T06:01:44;12.10;65.80
30594;DHT22;33199;47.590;8.300;2023-04-15T06:04:09;12.10;65.80
30594;DHT22;33199;47.590;8.300;2023-04-15T06:06:36;12.10;65.80
30594;DHT22;33199;47.590;8.300;2023-04-15T06:09:02;12.10;65.80
30594;DHT22;33199;47.590;8.300;2023-04-15T06:11:28;12.10;65.80
30594;DHT22;33199;47.590;8.300;2023-04-15T06:13:53;12.10;65.90
30594;DHT22;33199;47.590;8.300;2023-04-15T06:16:19;12.10;65.80
30594;DHT22;33199;47.590;8.300;2023-04-15T06:18:45;12.10;65.90
30594;DHT22;33199;47.590;8.300;2023-04-15T06:21:10;12.10;65.90
30594;DHT22;33199;47.590;8.300;2023-04-15T06:23:36;12.10;65.90
30594;DHT22;33199;47.590;8.300;2023-04-15T06:26:02;12.10;65.90
30594;DHT22;33199;47.590;8.300;2023-04-15T06:28:28;12.10;65.90
30594;DHT22;33199;47.590;8.300;2023-04-15T06:30:54;12.00;65.80
30594;DHT22;33199;47.590;8.300;2023-04-15T06:33:20;12.10;65.90
30594;DHT22;33199;47.590;8.300;2023-04-15T06:35:45;12.10;65.90
30594;DHT22;33199;47.590;8.300;2023-04-15T06:38:11;12.10;66.00
30594;DHT22;33199;47.590;8.300;2023-04-15T06:40:37;12.10;65.90
30594;DHT22;33199;47.590;8.300;2023-04-15T06:43:03;12.10;65.90
30594;DHT22;33199;47.590;8.300;2023-04-15T06:45:29;12.00;65.80
30594;DHT22;33199;47.590;8.300;2023-04-15T06:47:55;12.00;65.80
30594;DHT22;33199;47.590;8.300;2023-04-15T06:50:21;12.00;65.80
30594;DHT22;33199;47.590;8.300;2023-04-15T06:52:46;12.00;65.90
30594;DHT22;33199;47.590;8.300;2023-04-15T06:55:12;12.00;65.80
30594;DHT22;33199;47.590;8.300;2023-04-15T06:57:39;12.10;65.90
30594;DHT22;33199;47.590;8.300;2023-04-15T07:00:05;12.00;65.80
30594;DHT22;33199;47.590;8.300;2023-04-15T07:02:32;12.00;65.80
30594;DHT22;33199;47.590;8.300;2023-04-15T07:04:57;12.00;65.80
30594;DHT22;33199;47.590;8.300;2023-04-15T07:07:23;12.00;65.80
30594;DHT22;33199;47.590;8.300;2023-04-15T07:09:50;12.00;65.90
30594;DHT22;33199;47.590;8.300;2023-04-15T07:12:16;12.00;65.90
30594;DHT22;33199;47.590;8.300;2023-04-15T07:14:42;12.00;65.90
30594;DHT22;33199;47.590;8.300;2023-04-15T07:17:08;12.00;65.80
30594;DHT22;33199;47.590;8.300;2023-04-15T07:19:33;12.00;65.90
30594;DHT22;33199;47.590;8.300;2023-04-15T07:22:00;12.00;65.90
30594;DHT22;33199;47.590;8.300;2023-04-15T07:24:25;12.00;65.90
30594;DHT22;33199;47.590;8.300;2023-04-15T07:26:54;12.00;65.90
30594;DHT22;33199;47.590;8.300;2023-04-15T07:29:22;12.00;65.90
30594;DHT22;33199;47.590;8.300;2023-04-15T07:31:47;12.00;65.90
30594;DHT22;33199;47.590;8.300;2023-04-15T07:34:13;12.00;65.90
30594;DHT22;33199;47.590;8.300;2023-04-15T07:36:39;12.00;62.50
30594;DHT22;33199;47.590;8.300;2023-04-15T07:39:04;11.80;58.90
30594;DHT22;33199;47.590;8.300;2023-04-15T07:41:30;11.60;58.30
30594;DHT22;33199;47.590;8.300;2023-04-15T07:43:56;11.50;59.50
30594;DHT22;33199;47.590;8.300;2023-04-15T07:46:22;11.40;60.30
30594;DHT22;33199;47.590;8.300;2023-04-15T07:48:49;11.40;60.50
30594;DHT22;33199;47.590;8.300;2023-04-15T07:51:15;11.50;61.80
30594;DHT22;33199;47.590;8.300;2023-04-15T07:53:42;11.50;63.10
30594;DHT22;33199;47.590;8.300;2023-04-15T07:56:09;11.50;63.80
30594;DHT22;33199;47.590;8.300;2023-04-15T07:58:34;11.50;64.00
30594;DHT22;33199;47.590;8.300;2023-04-15T08:01:00;11.50;64.10
30594;DHT22;33199;47.590;8.300;2023-04-15T08:03:26;11.60;64.20
30594;DHT22;33199;47.590;8.300;2023-04-15T08:05:52;11.60;64.30
30594;DHT22;33199;47.590;8.300;2023-04-15T08:08:18;11.60;64.40
30594;DHT22;33199;47.590;8.300;2023-04-15T08:10:44;11.60;64.20
30594;DHT22;33199;47.590;8.300;2023-04-15T08:13:09;11.70;64.30
30594;DHT22;33199;47.590;8.300;2023-04-15T08:15:36;11.70;64.20
30594;DHT22;33199;47.590;8.300;2023-04-15T08:18:01;11.70;64.30
30594;DHT22;33199;47.590;8.300;2023-04-15T08:20:27;11.60;64.20
30594;DHT22;33199;47.590;8.300;2023-04-15T08:22:52;11.70;64.10
30594;DHT22;33199;47.590;8.300;2023-04-15T08:25:18;11.60;60.30
30594;DHT22;33199;47.590;8.300;2023-04-15T08:27:47;11.50;60.30
30594;DHT22;33199;47.590;8.300;2023-04-15T08:30:13;11.50;62.50
30594;DHT22;33199;47.590;8.300;2023-04-15T08:32:39;11.50;62.30
30594;DHT22;33199;47.590;8.300;2023-04-15T08:35:04;11.50;62.40
30594;DHT22;33199;47.590;8.300;2023-04-15T08:37:30;11.50;62.20
30594;DHT22;33199;47.590;8.300;2023-04-15T08:39:56;11.60;62.40
30594;DHT22;33199;47.590;8.300;2023-04-15T08:42:36;11.60;62.60
30594;DHT22;33199;47.590;8.300;2023-04-15T08:45:03;11.60;62.70
30594;DHT22;33199;47.590;8.300;2023-04-15T08:47:30;11.60;62.80
30594;DHT22;33199;47.590;8.300;2023-04-15T08:49:58;11.70;63.00
30594;DHT22;33199;47.590;8.300;2023-04-15T08:52:30;11.70;63.00
30594;DHT22;33199;47.590;8.300;2023-04-15T08:54:56;11.70;63.20
30594;DHT22;33199;47.590;8.300;2023-04-15T08:57:28;11.70;63.20
30594;DHT22;33199;47.590;8.300;2023-04-15T08:59:57;11.70;63.30
30594;DHT22;33199;47.590;8.300;2023-04-15T09:02:24;11.70;63.20
30594;DHT22;33199;47.590;8.300;2023-04-15T09:04:52;11.70;63.40
30594;DHT22;33199;47.590;8.300;2023-04-15T09:07:17;11.70;64.20
30594;DHT22;33199;47.590;8.300;2023-04-15T09:09:43;11.70;63.50
30594;DHT22;33199;47.590;8.300;2023-04-15T09:12:10;11.70;63.70
30594;DHT22;33199;47.590;8.300;2023-04-15T09:14:35;11.70;63.70
30594;DHT22;33199;47.590;8.300;2023-04-15T09:17:03;11.70;63.70
30594;DHT22;33199;47.590;8.300;2023-04-15T09:19:30;11.70;63.90
30594;DHT22;33199;47.590;8.300;2023-04-15T09:21:58;11.70;64.00
30594;DHT22;33199;47.590;8.300;2023-04-15T09:24:24;11.80;64.00
30594;DHT22;33199;47.590;8.300;2023-04-15T09:26:52;11.70;64.10
30594;DHT22;33199;47.590;8.300;2023-04-15T09:29:24;11.70;64.10
30594;DHT22;33199;47.590;8.300;2023-04-15T09:31:51;11.80;64.10
30594;DHT22;33199;47.590;8.300;2023-04-15T09:34:17;11.80;64.10
30594;DHT22;33199;47.590;8.300;2023-04-15T09:36:54;11.80;64.30
30594;DHT22;33199;47.590;8.300;2023-04-15T09:39:20;11.80;64.40
30594;DHT22;33199;47.590;8.300;2023-04-15T09:41:46;11.70;64.30
30594;DHT22;33199;47.590;8.300;2023-04-15T09:44:22;11.70;64.30
30594;DHT22;33199;47.590;8.300;2023-04-15T09:46:48;11.80;64.40
30594;DHT22;33199;47.590;8.300;2023-04-15T09:49:13;11.80;64.50
30594;DHT22;33199;47.590;8.300;2023-04-15T09:51:40;11.80;64.50
30594;DHT22;33199;47.590;8.300;2023-04-15T09:54:06;11.70;64.50
30594;DHT22;33199;47.590;8.300;2023-04-15T09:56:34;11.80;64.60
30594;DHT22;33199;47.590;8.300;2023-04-15T09:59:02;11.80;64.70
30594;DHT22;33199;47.590;8.300;2023-04-15T10:01:28;11.80;64.70
30594;DHT22;33199;47.590;8.300;2023-04-15T10:03:56;11.80;64.60
30594;DHT22;33199;47.590;8.300;2023-04-15T10:06:24;11.80;64.70
30594;DHT22;33199;47.590;8.300;2023-04-15T10:08:50;11.80;64.70
30594;DHT22;33199;47.590;8.300;2023-04-15T10:11:17;11.80;64.70
30594;DHT22;33199;47.590;8.300;2023-04-15T10:13:44;11.80;64.70
30594;DHT22;33199;47.590;8.300;2023-04-15T10:16:13;11.80;64.70
30594;DHT22;33199;47.590;8.300;2023-04-15T10:18:47;11.80;64.80
30594;DHT22;33199;47.590;8.300;2023-04-15T10:21:15;11.80;64.80
30594;DHT22;33199;47.590;8.300;2023-04-15T10:23:44;11.80;64.70
30594;DHT22;33199;47.590;8.300;2023-04-15T10:26:11;11.80;63.30
30594;DHT22;33199;47.590;8.300;2023-04-15T10:28:37;11.80;63.00
30594;DHT22;33199;47.590;8.300;2023-04-15T10:31:05;11.80;62.30
30594;DHT22;33199;47.590;8.300;2023-04-15T10:33:32;11.80;62.00
30594;DHT22;33199;47.590;8.300;2023-04-15T10:35:58;11.80;63.00
30594;DHT22;33199;47.590;8.300;2023-04-15T10:38:42;11.80;60.30
30594;DHT22;33199;47.590;8.300;2023-04-15T10:43:37;11.70;63.30
30594;DHT22;33199;47.590;8.300;2023-04-15T10:46:05;11.70;62.90
30594;DHT22;33199;47.590;8.300;2023-04-15T10:48:30;11.70;61.80
30594;DHT22;33199;47.590;8.300;2023-04-15T10:50:57;11.80;61.40
30594;DHT22;33199;47.590;8.300;2023-04-15T10:53:28;11.80;61.60
30594;DHT22;33199;47.590;8.300;2023-04-15T10:55:56;11.80;61.70
30594;DHT22;33199;47.590;8.300;2023-04-15T10:58:23;11.80;61.90
30594;DHT22;33199;47.590;8.300;2023-04-15T11:00:52;11.80;62.10
30594;DHT22;33199;47.590;8.300;2023-04-15T11:03:36;11.80;62.20
30594;DHT22;33199;47.590;8.300;2023-04-15T11:06:04;11.80;62.50
30594;DHT22;33199;47.590;8.300;2023-04-15T11:08:56;11.80;62.60
30594;DHT22;33199;47.590;8.300;2023-04-15T11:12:08;11.80;62.70
30594;DHT22;33199;47.590;8.300;2023-04-15T11:14:14;11.80;62.80
30594;DHT22;33199;47.590;8.300;2023-04-15T11:16:43;11.80;63.00
30594;DHT22;33199;47.590;8.300;2023-04-15T11:19:09;11.80;63.00
30594;DHT22;33199;47.590;8.300;2023-04-15T11:21:35;11.80;63.10
30594;DHT22;33199;47.590;8.300;2023-04-15T11:24:01;11.80;63.30
30594;DHT22;33199;47.590;8.300;2023-04-15T11:26:26;11.80;63.40
30594;DHT22;33199;47.590;8.300;2023-04-15T11:28:52;11.80;63.40
30594;DHT22;33199;47.590;8.300;2023-04-15T11:31:18;11.90;63.50
30594;DHT22;33199;47.590;8.300;2023-04-15T11:33:53;11.80;63.40
30594;DHT22;33199;47.590;8.300;2023-04-15T11:36:19;11.90;63.60
30594;DHT22;33199;47.590;8.300;2023-04-15T11:38:48;11.80;63.50
30594;DHT22;33199;47.590;8.300;2023-04-15T11:41:13;11.80;63.60
30594;DHT22;33199;47.590;8.300;2023-04-15T11:43:39;11.90;63.60
30594;DHT22;33199;47.590;8.300;2023-04-15T11:46:05;11.90;63.70
30594;DHT22;33199;47.590;8.300;2023-04-15T11:48:34;11.90;63.80
30594;DHT22;33199;47.590;8.300;2023-04-15T11:51:05;11.90;63.80
30594;DHT22;33199;47.590;8.300;2023-04-15T11:53:43;11.90;64.00
30594;DHT22;33199;47.590;8.300;2023-04-15T11:56:17;11.90;64.00
30594;DHT22;33199;47.590;8.300;2023-04-15T11:58:56;11.90;64.00
30594;DHT22;33199;47.590;8.300;2023-04-15T12:01:36;11.90;64.10
30594;DHT22;33199;47.590;8.300;2023-04-15T12:04:13;11.90;64.10
30594;DHT22;33199;47.590;8.300;2023-04-15T12:06:39;11.90;64.20
30594;DHT22;33199;47.590;8.300;2023-04-15T12:14:29;11.90;64.20
30594;DHT22;33199;47.590;8.300;2023-04-15T12:17:03;11.90;64.20
30594;DHT22;33199;47.590;8.300;2023-04-15T12:19:41;11.90;64.30
30594;DHT22;33199;47.590;8.300;2023-04-15T12:22:15;11.90;64.40
30594;DHT22;33199;47.590;8.300;2023-04-15T12:24:42;11.90;64.30
30594;DHT22;33199;47.590;8.300;2023-04-15T12:27:12;11.90;64.40
30594;DHT22;33199;47.590;8.300;2023-04-15T12:29:39;11.90;64.50
30594;DHT22;33199;47.590;8.300;2023-04-15T12:32:09;11.90;64.40
30594;DHT22;33199;47.590;8.300;2023-04-15T12:34:40;11.90;64.40
30594;DHT22;33199;47.590;8.300;2023-04-15T12:37:07;11.90;64.60
30594;DHT22;33199;47.590;8.300;2023-04-15T12:39:38;11.90;64.50
30594;DHT22;33199;47.590;8.300;2023-04-15T12:42:04;11.90;64.50
30594;DHT22;33199;47.590;8.300;2023-04-15T12:44:30;11.90;64.50
30594;DHT22;33199;47.590;8.300;2023-04-15T12:46:57;12.00;64.70
30594;DHT22;33199;47.590;8.300;2023-04-15T12:49:24;12.00;64.70
30594;DHT22;33199;47.590;8.300;2023-04-15T12:51:57;12.00;64.70
30594;DHT22;33199;47.590;8.300;2023-04-15T12:54:26;11.90;64.70
30594;DHT22;33199;47.590;8.300;2023-04-15T12:56:53;12.00;64.80
30594;DHT22;33199;47.590;8.300;2023-04-15T12:59:19;11.90;64.80
30594;DHT22;33199;47.590;8.300;2023-04-15T13:01:46;12.00;64.90
30594;DHT22;33199;47.590;8.300;2023-04-15T13:04:12;12.00;64.80
30594;DHT22;33199;47.590;8.300;2023-04-15T13:06:38;12.00;64.90
30594;DHT22;33199;47.590;8.300;2023-04-15T13:09:04;12.00;64.90
30594;DHT22;33199;47.590;8.300;2023-04-15T13:11:30;12.00;64.80
30594;DHT22;33199;47.590;8.300;2023-04-15T13:14:02;12.00;64.80
30594;DHT22;33199;47.590;8.300;2023-04-15T13:16:28;12.00;64.90
30594;DHT22;33199;47.590;8.300;2023-04-15T13:18:54;12.00;64.90
30594;DHT22;33199;47.590;8.300;2023-04-15T13:21:20;12.00;64.90
30594;DHT22;33199;47.590;8.300;2023-04-15T13:23:47;12.00;64.90
30594;DHT22;33199;47.590;8.300;2023-04-15T13:26:12;12.00;64.90
30594;DHT22;33199;47.590;8.300;2023-04-15T13:28:38;12.00;64.90
30594;DHT22;33199;47.590;8.300;2023-04-15T13:31:04;12.00;65.00
30594;DHT22;33199;47.590;8.300;2023-04-15T13:33:30;12.00;65.00
30594;DHT22;33199;47.590;8.300;2023-04-15T13:35:56;12.00;65.00
30594;DHT22;33199;47.590;8.300;2023-04-15T13:38:23;12.00;65.00
30594;DHT22;33199;47.590;8.300;2023-04-15T13:40:49;12.00;65.00
30594;DHT22;33199;47.590;8.300;2023-04-15T13:43:15;12.00;65.10
30594;DHT22;33199;47.590;8.300;2023-04-15T13:45:42;12.00;64.90
30594;DHT22;33199;47.590;8.300;2023-04-15T13:48:07;12.10;64.60
30594;DHT22;33199;47.590;8.300;2023-04-15T13:50:33;12.10;64.10
30594;DHT22;33199;47.590;8.300;2023-04-15T13:52:59;12.00;64.10
30594;DHT22;33199;47.590;8.300;2023-04-15T13:55:24;12.00;64.20
30594;DHT22;33199;47.590;8.300;2023-04-15T13:57:50;12.10;64.30
30594;DHT22;33199;47.590;8.300;2023-04-15T14:00:16;12.00;64.40
30594;DHT22;33199;47.590;8.300;2023-04-15T14:02:42;12.00;64.50
30594;DHT22;33199;47.590;8.300;2023-04-15T14:05:08;12.10;64.60
30594;DHT22;33199;47.590;8.300;2023-04-15T14:07:34;12.00;64.60
30594;DHT22;33199;47.590;8.300;2023-04-15T14:10:00;12.00;64.70
30594;DHT22;33199;47.590;8.300;2023-04-15T14:12:26;12.00;64.70
30594;DHT22;33199;47.590;8.300;2023-04-15T14:14:52;12.00;64.90
30594;DHT22;33199;47.590;8.300;2023-04-15T14:17:17;12.00;64.90
30594;DHT22;33199;47.590;8.300;2023-04-15T14:19:43;12.00;64.90
30594;DHT22;33199;47.590;8.300;2023-04-15T14:22:08;12.00;65.00
30594;DHT22;33199;47.590;8.300;2023-04-15T14:24:34;12.00;65.00
30594;DHT22;33199;47.590;8.300;2023-04-15T14:26:59;12.00;65.00
30594;DHT22;33199;47.590;8.300;2023-04-15T14:29:26;12.00;65.00
30594;DHT22;33199;47.590;8.300;2023-04-15T14:31:52;12.00;65.10
30594;DHT22;33199;47.590;8.300;2023-04-15T14:34:18;12.00;65.20
30594;DHT22;33199;47.590;8.300;2023-04-15T14:36:43;12.00;65.20
30594;DHT22;33199;47.590;8.300;2023-04-15T14:39:10;12.00;65.20
30594;DHT22;33199;47.590;8.300;2023-04-15T14:41:35;12.00;66.00
30594;DHT22;33199;47.590;8.300;2023-04-15T14:44:02;12.10;65.30
30594;DHT22;33199;47.590;8.300;2023-04-15T14:46:27;12.10;65.30
30594;DHT22;33199;47.590;8.300;2023-04-15T14:48:53;12.10;65.40
30594;DHT22;33199;47.590;8.300;2023-04-15T14:51:19;12.10;65.40
30594;DHT22;33199;47.590;8.300;2023-04-15T14:53:45;12.00;65.30
30594;DHT22;33199;47.590;8.300;2023-04-15T14:56:10;12.00;65.40
30594;DHT22;33199;47.590;8.300;2023-04-15T14:58:36;12.00;65.40
30594;DHT22;33199;47.590;8.300;2023-04-15T15:01:03;12.10;65.50
30594;DHT22;33199;47.590;8.300;2023-04-15T15:03:29;12.10;65.40
30594;DHT22;33199;47.590;8.300;2023-04-15T15:05:54;12.00;65.40
30594;DHT22;33199;47.590;8.300;2023-04-15T15:08:22;12.00;65.40
30594;DHT22;33199;47.590;8.300;2023-04-15T15:10:48;12.00;65.40
30594;DHT22;33199;47.590;8.300;2023-04-15T15:13:14;12.10;65.60
30594;DHT22;33199;47.590;8.300;2023-04-15T15:15:40;12.10;65.60
30594;DHT22;33199;47.590;8.300;2023-04-15T15:18:05;12.10;65.70
30594;DHT22;33199;47.590;8.300;2023-04-15T15:20:31;12.10;65.60
30594;DHT22;33199;47.590;8.300;2023-04-15T15:22:57;12.10;65.60
30594;DHT22;33199;47.590;8.300;2023-04-15T15:25:23;12.10;65.60
30594;DHT22;33199;47.590;8.300;2023-04-15T15:27:49;12.10;65.60
30594;DHT22;33199;47.590;8.300;2023-04-15T15:30:14;12.10;65.70
30594;DHT22;33199;47.590;8.300;2023-04-15T15:32:40;12.10;65.70
30594;DHT22;33199;47.590;8.300;2023-04-15T15:35:07;12.10;65.70